createdAt,value
2019-02-07T06:37:55.307Z,53.50
2019-02-07T06:40:47.095Z,77.73
2019-02-07T06:43:33.779Z,56.23
2019-02-07T06:46:20.582Z,52.77
2019-02-07T06:49:05.084Z,49.80
2019-02-07T06:52:14.061Z,47.98
2019-02-07T06:55:04.891Z,43.73
2019-02-07T06:57:52.947Z,42.77
2019-02-07T07:00:46.826Z,41.97
2019-02-07T07:03:33.322Z,44.17
2019-02-07T07:06:24.498Z,43.70
2019-02-07T07:09:11.415Z,44.60
2019-02-07T07:11:57.208Z,44.10
2019-02-07T07:14:47.041Z,45.40
2019-02-07T07:17:38.090Z,48.33
2019-02-07T07:20:29.850Z,45.50
2019-02-07T07:23:09.637Z,47.13
2019-02-07T07:25:57.599Z,49.30
2019-02-07T07:28:57.156Z,48.60
2019-02-07T07:31:54.498Z,47.77
2019-02-07T07:34:48.704Z,45.60
2019-02-07T07:37:48.623Z,48.17
2019-02-07T07:40:35.084Z,46.43
2019-02-07T07:43:32.149Z,50.90
2019-02-07T07:46:18.570Z,48.33
2019-02-07T07:49:00.420Z,49.70
2019-02-07T07:52:10.679Z,52.97
2019-02-07T07:54:58.996Z,47.83
2019-02-07T07:57:51.310Z,53.27
2019-02-07T08:00:54.720Z,50.97
2019-02-07T08:03:34.732Z,47.97
2019-02-07T08:06:28.874Z,46.63
2019-02-07T08:09:18.278Z,50.70
2019-02-07T08:12:04.579Z,47.37
2019-02-07T08:14:55.579Z,48.20
2019-02-07T08:17:46.886Z,45.93
2019-02-07T08:20:24.729Z,49.23
2019-02-07T08:23:08.695Z,49.30
2019-02-07T08:26:12.024Z,51.63
2019-02-07T08:29:03.100Z,51.97
2019-02-07T08:31:48.868Z,51.87
2019-02-07T08:34:45.967Z,51.77
2019-02-07T08:37:51.813Z,50.00
2019-02-07T08:40:43.086Z,51.27
2019-02-07T08:43:39.680Z,51.47
2019-02-07T08:46:31.034Z,54.90
2019-02-07T08:49:17.685Z,55.07
2019-02-07T08:52:18.193Z,60.20
2019-02-07T08:55:00.322Z,50.27
2019-02-07T08:57:42.522Z,59.20
2019-02-07T09:00:33.921Z,54.43
2019-02-07T09:03:12.081Z,51.13
2019-02-07T09:06:00.242Z,53.20
2019-02-07T09:08:46.608Z,54.93
2019-02-07T09:11:33.716Z,55.27
2019-02-07T09:14:24.686Z,55.73
2019-02-07T09:17:21.690Z,58.23
2019-02-07T09:20:08.160Z,59.27
2019-02-07T09:22:56.056Z,62.30
2019-02-07T09:25:49.870Z,60.40
2019-02-07T09:28:40.912Z,66.60
2019-02-07T09:31:27.382Z,62.37
2019-02-07T09:34:06.584Z,67.53
2019-02-07T09:36:53.398Z,59.63
2019-02-07T09:39:41.186Z,60.00
2019-02-07T09:42:27.025Z,58.30
2019-02-07T09:45:13.548Z,63.83
2019-02-07T09:48:03.385Z,59.77
2019-02-07T09:50:50.012Z,64.10
2019-02-07T09:53:40.966Z,60.40
2019-02-07T09:56:30.719Z,61.83
2019-02-07T09:59:30.764Z,58.63
2019-02-07T10:02:20.497Z,60.10
2019-02-07T10:05:14.277Z,69.53
2019-02-07T10:08:17.680Z,67.40
2019-02-07T10:10:55.972Z,67.77
2019-02-07T10:13:43.965Z,60.37
2019-02-07T10:16:42.048Z,63.97
2019-02-07T10:19:28.417Z,59.93
2019-02-07T10:22:14.272Z,66.80
2019-02-07T10:25:02.185Z,66.50
2019-02-07T10:27:50.286Z,63.93
2019-02-07T10:30:28.837Z,64.40
2019-02-07T10:33:16.243Z,58.00
2019-02-07T10:36:03.296Z,62.77
2019-02-07T10:39:03.982Z,64.37
2019-02-07T10:41:46.952Z,62.10
2019-02-07T10:44:37.933Z,65.63
2019-02-07T10:47:32.855Z,62.70
2019-02-07T10:50:19.722Z,68.70
2019-02-07T10:53:07.791Z,59.27
2019-02-07T10:55:49.538Z,59.47
2019-02-07T10:58:40.474Z,63.40
2019-02-07T11:01:31.998Z,61.27
2019-02-07T11:04:28.961Z,64.93
2019-02-07T11:07:13.443Z,71.97
2019-02-07T11:10:10.888Z,69.43
2019-02-07T11:12:57.321Z,73.27
2019-02-07T11:15:43.997Z,74.63
2019-02-07T11:18:30.837Z,75.23
2019-02-07T11:21:17.854Z,82.57
2019-02-07T11:24:15.001Z,83.00
2019-02-07T11:27:04.916Z,79.63
2019-02-07T11:29:43.888Z,76.87
2019-02-07T11:32:18.489Z,66.57
2019-02-07T11:35:09.274Z,73.80
2019-02-07T11:37:58.849Z,81.47
2019-02-07T11:40:50.198Z,83.53
2019-02-07T11:43:59.296Z,87.93
2019-02-07T11:46:53.349Z,85.03
2019-02-07T11:49:39.567Z,71.73
2019-02-07T11:52:42.571Z,74.90
2019-02-07T11:55:46.820Z,77.73
2019-02-07T11:58:37.693Z,89.53
2019-02-07T12:01:28.776Z,82.93
2019-02-07T12:04:25.690Z,87.17
2019-02-07T12:07:21.241Z,72.47
2019-02-07T12:10:08.287Z,72.20
2019-02-07T12:12:49.734Z,71.37
2019-02-07T12:15:32.934Z,79.50
2019-02-07T12:18:30.800Z,76.27
2019-02-07T12:21:17.752Z,72.43
2019-02-07T12:24:11.694Z,76.20
2019-02-07T12:26:58.348Z,66.97
2019-02-07T12:29:52.614Z,70.37
2019-02-07T12:32:42.341Z,83.80
2019-02-07T12:35:42.793Z,80.23
2019-02-07T12:38:43.401Z,81.87
2019-02-07T12:41:30.577Z,82.73
2019-02-07T12:44:08.829Z,78.10
2019-02-07T12:46:55.321Z,78.00
2019-02-07T12:49:36.653Z,83.80
2019-02-07T12:52:28.658Z,78.67
2019-02-07T12:55:13.440Z,78.13
2019-02-07T12:58:19.681Z,72.83
2019-02-07T13:01:16.863Z,78.93
2019-02-07T13:04:10.563Z,79.30
2019-02-07T13:07:06.752Z,78.63
2019-02-07T13:09:48.089Z,83.17
2019-02-07T13:12:31.429Z,83.60
2019-02-07T13:15:10.428Z,74.77
2019-02-07T13:17:59.919Z,73.10
2019-02-07T13:20:46.832Z,82.00
2019-02-07T13:23:33.643Z,82.23
2019-02-07T13:26:20.608Z,74.77
2019-02-07T13:29:07.370Z,72.53
2019-02-07T13:32:01.965Z,77.70
2019-02-07T13:34:55.069Z,77.83
2019-02-07T13:37:45.978Z,75.50
2019-02-07T13:40:42.822Z,72.20
2019-02-07T13:43:23.797Z,81.07
2019-02-07T13:46:32.827Z,79.03
2019-02-07T13:49:19.293Z,78.23
2019-02-07T13:52:16.135Z,84.73
2019-02-07T13:55:04.162Z,83.30
2019-02-07T13:58:10.132Z,77.73
2019-02-07T14:01:00.916Z,80.70
2019-02-07T14:03:47.549Z,81.47
2019-02-07T14:06:28.750Z,80.07
2019-02-07T14:09:09.305Z,71.37
2019-02-07T14:11:57.364Z,78.80
2019-02-07T14:14:54.433Z,76.57
2019-02-07T14:17:41.068Z,79.37
2019-02-07T14:20:28.216Z,76.50
2019-02-07T14:23:22.425Z,71.27
2019-02-07T14:26:08.446Z,64.43
2019-02-07T14:29:02.527Z,75.33
2019-02-07T14:31:49.018Z,72.77
2019-02-07T14:34:37.309Z,70.13
2019-02-07T14:37:28.556Z,68.10
2019-02-07T14:40:19.449Z,74.00
2019-02-07T14:42:54.013Z,77.73
2019-02-07T14:45:41.565Z,68.93
2019-02-07T14:48:22.428Z,61.37
2019-02-07T14:50:59.146Z,65.00
2019-02-07T14:53:28.733Z,67.13
2019-02-07T14:55:59.607Z,69.93
2019-02-07T14:58:28.756Z,71.90
2019-02-07T15:00:59.120Z,68.13
2019-02-07T15:03:31.241Z,67.77
2019-02-07T15:06:00.541Z,68.93
2019-02-07T15:08:32.845Z,71.23
2019-02-07T15:11:02.665Z,79.23
2019-02-07T15:13:37.576Z,78.90
2019-02-07T15:16:09.051Z,83.80
2019-02-07T15:18:41.301Z,73.43
2019-02-07T15:21:10.702Z,72.07
2019-02-07T15:23:39.896Z,79.30
2019-02-07T15:26:11.644Z,86.13
2019-02-07T15:28:40.814Z,81.83
2019-02-07T15:31:10.049Z,86.67
2019-02-07T15:33:39.275Z,77.80
2019-02-07T15:36:10.262Z,76.03
2019-02-07T15:38:39.350Z,65.90
2019-02-07T15:41:08.337Z,76.10
2019-02-07T15:43:37.866Z,72.33
2019-02-07T15:46:07.948Z,76.07
2019-02-07T15:48:37.009Z,73.10
2019-02-07T15:51:07.002Z,66.33
2019-02-07T15:53:38.889Z,71.30
2019-02-07T15:56:08.215Z,64.80
2019-02-07T15:59:01.725Z,59.67
2019-02-07T16:01:54.268Z,60.20
2019-02-07T16:04:30.604Z,64.97
2019-02-07T16:06:59.621Z,61.67
2019-02-07T16:09:28.975Z,66.67
2019-02-07T16:11:58.213Z,60.90
2019-02-07T16:14:28.418Z,65.73
2019-02-07T16:16:57.589Z,62.30
2019-02-07T16:19:30.555Z,63.50
2019-02-07T16:21:59.568Z,60.60
2019-02-07T16:24:29.191Z,64.77
2019-02-07T16:26:58.279Z,69.83
2019-02-07T16:29:31.751Z,75.20
2019-02-07T16:32:05.038Z,84.33
2019-02-07T16:34:34.229Z,84.70
2019-02-07T16:37:06.489Z,73.60
2019-02-07T16:39:38.669Z,72.57
2019-02-07T16:42:07.949Z,71.10
2019-02-07T16:44:47.179Z,75.40
2019-02-07T16:47:21.081Z,71.70
2019-02-07T16:49:50.105Z,71.55
2019-02-07T16:52:19.697Z,72.30
2019-02-07T16:54:52.027Z,67.80
2019-02-07T16:58:08.557Z,64.87
2019-02-07T17:17:46.062Z,83.53
2019-02-07T17:20:24.174Z,83.17
2019-02-07T17:23:18.470Z,80.07
2019-02-07T17:25:47.709Z,79.90
2019-02-07T17:29:05.342Z,81.23
2019-02-07T17:36:58.879Z,90.30
2019-02-07T18:00:01.388Z,90.77
2019-02-07T18:10:12.976Z,117.77
2019-02-07T18:12:38.716Z,105.23
2019-02-07T18:15:13.028Z,103.90
2019-02-07T18:17:46.015Z,115.10
2019-02-07T18:20:23.244Z,183.63
2019-02-07T18:23:09.233Z,225.47
2019-02-07T18:26:26.301Z,268.93
2019-02-07T18:28:58.951Z,205.53
2019-02-07T20:01:16.994Z,53.80
2019-02-07T21:47:29.127Z,50.93
2019-02-07T21:57:48.487Z,43.20
2019-02-07T23:05:30.410Z,28.07
